Time;durP1;ratioP1;P1;durP2;ratioP2;P2;SDS_P1;SDS_P2;PMS_P1;PMS_P2;Temp;Humidity;BMP_temperature;BMP_pressure;BME280_temperature;BME280_humidity;BME280_pressure;Samples;Min_cycle;Max_cycle;Signal;HPM_P1;HPM_P2
2022/03/11 00:00:59;;;;;;;17.55;9.38;;;8.80;9.90;;;;;;4959747;29;20398;-78
2022/03/11 00:03:24;;;;;;;15.70;9.20;;;8.80;10.10;;;;;;4940773;28;20418;-79
2022/03/11 00:05:51;;;;;;;16.08;8.95;;;8.90;9.40;;;;;;4962147;28;20419;-80
2022/03/11 00:08:17;;;;;;;16.05;8.90;;;8.80;10.40;;;;;;4961495;28;20412;-78
2022/03/11 00:10:42;;;;;;;17.70;9.52;;;8.80;9.70;;;;;;4932118;29;21080;-78
2022/03/11 00:13:08;;;;;;;18.50;9.68;;;8.70;10.20;;;;;;4948504;28;20406;-77
2022/03/11 00:15:34;;;;;;;16.13;9.80;;;8.70;9.30;;;;;;4948726;28;20412;-77
2022/03/11 00:18:00;;;;;;;15.10;9.17;;;8.70;9.40;;;;;;4957240;28;20767;-79
2022/03/11 00:20:25;;;;;;;15.80;9.10;;;8.60;9.60;;;;;;4952978;28;20406;-79
2022/03/11 00:22:52;;;;;;;17.97;8.70;;;8.60;9.60;;;;;;4947708;28;20448;-77
2022/03/11 00:25:19;;;;;;;18.60;9.10;;;8.60;10.10;;;;;;4962055;28;20662;-79
2022/03/11 00:27:46;;;;;;;15.88;8.80;;;8.60;10.30;;;;;;4946764;29;20417;-79
2022/03/11 00:30:12;;;;;;;15.02;8.63;;;8.60;10.30;;;;;;4938896;28;20406;-79
2022/03/11 00:32:38;;;;;;;16.23;8.10;;;8.60;9.90;;;;;;4961603;28;20498;-78
2022/03/11 00:35:09;;;;;;;14.48;8.20;;;8.70;10.20;;;;;;4958242;28;20428;-78
2022/03/11 00:37:39;;;;;;;14.63;8.90;;;8.70;10.30;;;;;;4959798;29;20411;-78
2022/03/11 00:40:06;;;;;;;16.23;9.43;;;8.60;10.50;;;;;;4959728;29;20397;-78
2022/03/11 00:42:32;;;;;;;15.53;9.07;;;8.60;10.30;;;;;;4934146;29;20411;-77
2022/03/11 00:44:57;;;;;;;17.77;9.10;;;8.50;10.00;;;;;;4951926;29;20429;-78
2022/03/11 00:47:23;;;;;;;15.82;8.50;;;8.50;10.60;;;;;;4944877;28;20453;-78
2022/03/11 00:49:48;;;;;;;17.83;9.20;;;8.40;9.70;;;;;;4947190;28;20405;-77
2022/03/11 00:52:14;;;;;;;14.90;8.18;;;8.50;9.80;;;;;;4971249;28;20404;-79
2022/03/11 00:54:40;;;;;;;14.85;8.75;;;8.50;10.60;;;;;;4959434;28;20406;-78
2022/03/11 00:57:05;;;;;;;15.27;8.57;;;8.40;10.30;;;;;;4961091;28;20435;-78
2022/03/11 00:59:31;;;;;;;20.60;9.13;;;8.40;10.70;;;;;;4960462;28;20407;-77
2022/03/11 01:01:56;;;;;;;13.10;8.10;;;8.50;10.40;;;;;;4946755;28;20507;-77
2022/03/11 01:04:22;;;;;;;14.23;8.57;;;8.40;10.40;;;;;;4948958;29;20461;-79
2022/03/11 01:06:48;;;;;;;13.97;8.53;;;8.30;10.30;;;;;;4953091;28;20428;-79
2022/03/11 01:09:13;;;;;;;13.47;8.67;;;8.30;11.20;;;;;;4955030;28;20419;-78
2022/03/11 01:11:39;;;;;;;13.37;8.60;;;8.30;10.60;;;;;;4930670;28;20510;-79
2022/03/11 01:14:05;;;;;;;15.43;8.32;;;8.20;10.90;;;;;;4949901;28;20425;-79
2022/03/11 01:16:31;;;;;;;16.90;7.97;;;8.10;10.70;;;;;;4949559;28;20469;-77
2022/03/11 01:18:57;;;;;;;17.30;8.90;;;8.10;11.10;;;;;;4962425;28;20408;-79
2022/03/11 01:21:22;;;;;;;17.30;8.50;;;8.10;11.30;;;;;;4945629;28;20432;-80
2022/03/11 01:23:48;;;;;;;14.55;8.63;;;8.00;10.80;;;;;;4931079;29;20413;-79
2022/03/11 01:26:14;;;;;;;16.27;8.75;;;8.10;11.30;;;;;;4943930;28;20410;-77
2022/03/11 01:28:42;;;;;;;16.92;8.38;;;8.00;11.70;;;;;;4941809;29;20540;-77
2022/03/11 01:31:11;;;;;;;19.25;8.10;;;8.00;11.20;;;;;;4962189;29;20481;-77
2022/03/11 01:33:41;;;;;;;19.10;9.40;;;8.00;12.00;;;;;;4957252;28;20413;-78
2022/03/11 01:36:08;;;;;;;14.55;8.80;;;7.90;12.10;;;;;;4944487;28;20829;-77
2022/03/11 01:38:33;;;;;;;14.73;8.20;;;7.90;11.50;;;;;;4926090;28;20773;-77
2022/03/11 01:40:59;;;;;;;15.90;8.60;;;7.80;12.90;;;;;;4949601;28;20405;-78
2022/03/11 01:43:25;;;;;;;12.85;8.20;;;7.70;12.40;;;;;;4941595;28;20443;-78
2022/03/11 01:45:50;;;;;;;14.52;8.88;;;7.70;13.20;;;;;;4949875;28;20481;-79
2022/03/11 01:48:16;;;;;;;15.02;8.80;;;7.70;12.50;;;;;;4944086;28;20515;-77
2022/03/11 01:50:42;;;;;;;18.20;8.85;;;7.60;12.80;;;;;;4947216;28;20460;-79
2022/03/11 01:53:10;;;;;;;17.45;9.00;;;7.60;12.80;;;;;;4950613;28;20406;-77
2022/03/11 01:55:37;;;;;;;14.45;8.55;;;7.60;14.60;;;;;;4951812;29;20459;-78
2022/03/11 01:58:04;;;;;;;14.23;9.30;;;7.70;13.40;;;;;;4931649;29;20477;-77
2022/03/11 02:00:30;;;;;;;12.70;8.32;;;7.70;13.40;;;;;;4933872;28;20410;-78
2022/03/11 02:02:55;;;;;;;15.05;8.80;;;7.70;13.60;;;;;;4935436;29;20409;-77
2022/03/11 02:05:21;;;;;;;16.63;9.00;;;7.60;13.00;;;;;;4957014;28;20401;-77
2022/03/11 02:07:47;;;;;;;15.30;8.70;;;7.50;14.30;;;;;;4945973;28;20398;-78
2022/03/11 02:10:14;;;;;;;15.68;8.70;;;7.50;13.80;;;;;;4944845;28;20429;-79
2022/03/11 02:12:39;;;;;;;15.00;8.90;;;7.50;13.90;;;;;;4951960;28;20425;-79
2022/03/11 02:15:06;;;;;;;14.20;9.07;;;7.50;14.10;;;;;;4933618;28;20886;-77
2022/03/11 02:17:32;;;;;;;20.08;9.70;;;7.40;13.70;;;;;;4953672;28;20415;-78
2022/03/11 02:19:58;;;;;;;16.75;8.95;;;7.50;13.30;;;;;;4950064;29;20406;-78
2022/03/11 02:22:24;;;;;;;14.45;9.13;;;7.40;14.30;;;;;;4946962;28;20907;-77
2022/03/11 02:24:51;;;;;;;15.77;8.35;;;7.40;14.30;;;;;;4951062;28;20875;-79
2022/03/11 02:27:18;;;;;;;14.73;9.10;;;7.50;14.00;;;;;;4925868;29;20423;-78
2022/03/11 02:29:43;;;;;;;14.90;9.07;;;7.40;14.00;;;;;;4959291;28;20429;-78
2022/03/11 02:32:09;;;;;;;14.60;9.30;;;7.50;14.70;;;;;;4957581;28;20402;-77
2022/03/11 02:34:37;;;;;;;16.00;9.60;;;7.40;14.80;;;;;;4948832;28;20398;-77
2022/03/11 02:37:03;;;;;;;18.30;9.57;;;7.50;14.40;;;;;;4954245;29;20426;-79
2022/03/11 02:39:28;;;;;;;15.73;9.30;;;7.40;14.10;;;;;;4945668;28;20511;-77
2022/03/11 02:41:54;;;;;;;18.17;9.97;;;7.30;14.80;;;;;;4967464;28;20987;-78
2022/03/11 02:44:20;;;;;;;17.80;9.70;;;7.30;14.60;;;;;;4955902;28;20467;-77
2022/03/11 02:46:45;;;;;;;15.43;8.90;;;7.30;15.10;;;;;;4942540;28;20411;-76
2022/03/11 02:49:11;;;;;;;19.40;9.80;;;7.40;15.10;;;;;;4949265;28;20412;-77
2022/03/11 02:51:36;;;;;;;15.10;9.40;;;7.40;15.50;;;;;;4953043;28;20416;-78
2022/03/11 02:54:03;;;;;;;16.73;9.80;;;7.40;14.60;;;;;;4958260;28;20414;-79
2022/03/11 02:56:28;;;;;;;17.38;9.82;;;7.30;15.50;;;;;;4938247;28;20438;-78
2022/03/11 02:58:54;;;;;;;17.42;9.60;;;7.20;15.70;;;;;;4948316;28;20401;-76
2022/03/11 03:01:20;;;;;;;16.65;9.77;;;7.30;15.80;;;;;;4942634;28;20422;-78
2022/03/11 03:03:45;;;;;;;21.83;10.40;;;7.20;15.40;;;;;;4948145;28;20883;-78
2022/03/11 03:06:11;;;;;;;16.73;9.95;;;7.10;16.00;;;;;;4958420;28;20901;-77
2022/03/11 03:08:36;;;;;;;17.92;9.82;;;7.10;16.60;;;;;;4962641;28;21321;-77
2022/03/11 03:11:02;;;;;;;20.05;10.45;;;7.10;15.90;;;;;;4957874;28;20460;-77
2022/03/11 03:13:28;;;;;;;15.60;9.75;;;7.10;16.50;;;;;;4951100;28;20451;-78
2022/03/11 03:15:53;;;;;;;18.23;10.30;;;7.00;16.20;;;;;;4942328;28;20500;-77
2022/03/11 03:18:19;;;;;;;15.87;9.93;;;7.00;17.10;;;;;;4956162;28;20434;-78
2022/03/11 03:20:45;;;;;;;18.13;10.40;;;7.00;17.10;;;;;;4956807;28;20402;-78
2022/03/11 03:23:10;;;;;;;18.65;10.40;;;7.00;16.50;;;;;;4951225;28;20400;-76
2022/03/11 03:25:36;;;;;;;18.55;10.45;;;6.90;16.20;;;;;;4943987;28;20402;-78
2022/03/11 03:28:02;;;;;;;21.15;10.50;;;6.90;16.70;;;;;;4952051;28;20399;-78
2022/03/11 03:30:27;;;;;;;18.70;10.35;;;6.90;16.80;;;;;;4953683;28;20402;-78
2022/03/11 03:32:53;;;;;;;22.40;9.80;;;7.00;16.80;;;;;;4957315;28;20497;-78
2022/03/11 03:35:18;;;;;;;17.40;10.47;;;7.00;16.50;;;;;;4955061;28;20398;-77
2022/03/11 03:37:44;;;;;;;21.13;11.30;;;6.90;16.30;;;;;;4956102;28;20838;-79
2022/03/11 03:40:10;;;;;;;23.87;10.70;;;6.80;16.20;;;;;;4944979;28;20433;-75
2022/03/11 03:42:36;;;;;;;18.90;9.45;;;6.70;16.70;;;;;;4951804;28;20510;-78
2022/03/11 03:45:05;;;;;;;20.70;10.50;;;6.80;16.80;;;;;;4934173;28;20418;-77
2022/03/11 03:47:30;;;;;;;17.60;10.23;;;6.90;16.40;;;;;;4940988;28;20416;-79
2022/03/11 03:49:56;;;;;;;17.13;9.93;;;6.90;17.40;;;;;;4929507;28;20420;-79
2022/03/11 03:52:21;;;;;;;18.87;10.10;;;6.90;16.80;;;;;;4967801;28;20392;-79
2022/03/11 03:54:47;;;;;;;17.65;10.75;;;6.90;17.10;;;;;;4936355;28;20541;-79
2022/03/11 03:57:13;;;;;;;20.52;10.40;;;6.90;17.50;;;;;;4938711;28;20410;-79
2022/03/11 03:59:39;;;;;;;19.55;11.10;;;6.80;17.20;;;;;;4954083;28;20862;-79
2022/03/11 04:02:05;;;;;;;19.03;11.10;;;6.70;17.70;;;;;;4938017;28;20468;-78
2022/03/11 04:04:31;;;;;;;18.45;11.10;;;6.80;17.50;;;;;;4960255;28;20415;-78
2022/03/11 04:06:56;;;;;;;20.05;10.65;;;6.80;16.80;;;;;;4955688;28;20408;-77
2022/03/11 04:09:22;;;;;;;21.40;11.03;;;6.80;16.80;;;;;;4962269;28;20417;-77
2022/03/11 04:11:47;;;;;;;18.17;10.30;;;6.80;17.10;;;;;;4957162;28;20428;-76
2022/03/11 04:14:13;;;;;;;20.05;10.32;;;6.80;17.30;;;;;;4938062;28;20406;-77
2022/03/11 04:16:38;;;;;;;18.73;11.05;;;6.80;17.10;;;;;;4939356;28;20425;-77
2022/03/11 04:19:04;;;;;;;21.50;11.00;;;6.70;17.50;;;;;;4940459;28;20411;-76
2022/03/11 04:21:30;;;;;;;21.17;11.32;;;6.70;18.20;;;;;;4950797;28;20421;-76
2022/03/11 04:23:56;;;;;;;20.98;11.25;;;6.70;17.90;;;;;;4960607;28;20417;-77
2022/03/11 04:26:21;;;;;;;19.70;10.50;;;6.60;17.90;;;;;;4958954;28;20414;-79
2022/03/11 04:28:47;;;;;;;25.08;11.55;;;6.70;17.60;;;;;;4934409;28;20412;-76
2022/03/11 04:31:13;;;;;;;20.45;10.95;;;6.70;17.70;;;;;;4954965;28;20791;-79
2022/03/11 04:33:40;;;;;;;18.80;11.55;;;6.60;17.90;;;;;;4952307;28;20471;-79
2022/03/11 04:36:07;;;;;;;21.25;11.63;;;6.60;17.50;;;;;;4940697;28;20448;-80
2022/03/11 04:38:34;;;;;;;21.75;11.55;;;6.50;17.50;;;;;;4946831;28;20422;-80
2022/03/11 04:41:00;;;;;;;20.40;12.13;;;6.60;17.70;;;;;;4955250;28;20412;-79
2022/03/11 04:43:26;;;;;;;18.23;11.00;;;6.60;18.00;;;;;;4952090;28;20407;-78
2022/03/11 04:45:52;;;;;;;21.02;11.70;;;6.50;17.70;;;;;;4955360;28;20409;-78
2022/03/11 04:48:18;;;;;;;22.60;12.43;;;6.40;18.00;;;;;;4945324;28;20419;-80
2022/03/11 04:50:44;;;;;;;20.00;12.20;;;6.40;17.80;;;;;;4944413;28;20408;-81
2022/03/11 04:53:10;;;;;;;19.80;11.88;;;6.40;17.90;;;;;;4943847;28;20408;-80
2022/03/11 04:55:36;;;;;;;19.60;11.60;;;6.30;18.10;;;;;;4929965;28;20398;-80
2022/03/11 04:58:02;;;;;;;24.25;12.40;;;6.30;19.10;;;;;;4952683;28;20482;-79
2022/03/11 05:00:28;;;;;;;22.13;12.55;;;6.40;18.00;;;;;;4949364;28;20415;-80
2022/03/11 05:02:54;;;;;;;23.70;12.32;;;6.30;18.00;;;;;;4978348;28;20395;-81
2022/03/11 05:05:21;;;;;;;25.65;12.35;;;6.30;18.10;;;;;;4960288;29;20405;-80
2022/03/11 05:07:47;;;;;;;24.17;13.25;;;6.30;18.50;;;;;;4945716;28;20415;-82
2022/03/11 05:10:16;;;;;;;23.90;13.77;;;6.30;18.70;;;;;;4958115;28;20426;-81
2022/03/11 05:12:42;;;;;;;28.17;13.43;;;6.30;17.80;;;;;;4961847;28;20751;-82
2022/03/11 05:15:09;;;;;;;22.02;13.20;;;6.30;18.20;;;;;;4943788;28;20406;-82
2022/03/11 05:17:35;;;;;;;24.98;13.38;;;6.30;18.60;;;;;;4944679;28;20447;-80
2022/03/11 05:20:03;;;;;;;26.77;13.05;;;6.30;19.00;;;;;;4936088;28;20398;-80
2022/03/11 05:22:29;;;;;;;23.33;12.95;;;6.20;18.50;;;;;;4964413;28;20414;-81
2022/03/11 05:24:55;;;;;;;25.48;13.82;;;6.30;19.00;;;;;;4964738;28;20405;-81
2022/03/11 05:27:20;;;;;;;25.00;13.57;;;6.30;18.70;;;;;;4943402;28;20403;-80
2022/03/11 05:29:46;;;;;;;22.00;12.97;;;6.20;18.30;;;;;;4959807;28;20449;-82
2022/03/11 05:32:14;;;;;;;27.00;14.47;;;6.20;19.10;;;;;;4938262;28;20419;-82
2022/03/11 05:34:40;;;;;;;25.17;13.25;;;6.20;18.70;;;;;;4963364;29;20439;-83
2022/03/11 05:37:06;;;;;;;26.73;14.53;;;6.20;18.70;;;;;;4956712;28;20425;-79
2022/03/11 05:39:32;;;;;;;26.08;14.18;;;6.10;18.60;;;;;;4957484;28;20399;-80
2022/03/11 05:41:58;;;;;;;25.58;14.27;;;6.10;19.00;;;;;;4954034;28;20485;-80
2022/03/11 05:44:24;;;;;;;25.25;14.30;;;6.10;19.40;;;;;;4949155;28;20402;-80
2022/03/11 05:46:52;;;;;;;26.30;14.65;;;6.20;19.10;;;;;;4936922;28;20442;-82
2022/03/11 05:49:18;;;;;;;26.38;14.02;;;6.10;19.50;;;;;;4952599;28;20484;-79
2022/03/11 05:51:43;;;;;;;25.27;14.60;;;6.10;20.00;;;;;;4937889;28;20425;-78
2022/03/11 05:54:09;;;;;;;25.23;15.30;;;6.00;18.70;;;;;;4965198;28;20403;-80
2022/03/11 05:56:35;;;;;;;25.10;14.18;;;5.90;18.80;;;;;;4955533;28;20494;-81
2022/03/11 05:59:01;;;;;;;25.80;14.68;;;6.10;19.70;;;;;;4964226;28;20420;-80
2022/03/11 06:01:27;;;;;;;25.58;15.05;;;6.00;19.30;;;;;;4960839;28;20409;-82
2022/03/11 06:03:52;;;;;;;26.43;15.10;;;6.00;19.20;;;;;;4965895;28;20474;-82
2022/03/11 06:06:18;;;;;;;30.50;16.25;;;6.00;19.50;;;;;;4968245;28;20406;-81
2022/03/11 06:08:44;;;;;;;26.80;16.00;;;5.90;19.10;;;;;;4954871;28;20465;-81
2022/03/11 06:11:10;;;;;;;27.45;15.80;;;5.90;19.50;;;;;;4955640;28;20408;-81
2022/03/11 06:13:36;;;;;;;30.55;15.88;;;5.90;19.90;;;;;;4937040;28;20855;-82
2022/03/11 06:16:03;;;;;;;27.73;15.77;;;6.00;20.00;;;;;;4941343;28;20405;-80
2022/03/11 06:18:29;;;;;;;31.30;15.57;;;5.90;19.60;;;;;;4962205;28;20508;-81
2022/03/11 06:20:56;;;;;;;31.93;16.20;;;6.00;19.90;;;;;;4943397;28;20663;-81
2022/03/11 06:23:22;;;;;;;29.80;15.93;;;6.00;19.70;;;;;;4936589;28;20410;-80
2022/03/11 06:25:48;;;;;;;28.83;16.90;;;6.20;19.70;;;;;;4938403;28;20444;-80
2022/03/11 06:28:13;;;;;;;30.40;16.83;;;6.20;20.50;;;;;;4939994;28;20407;-81
2022/03/11 06:30:39;;;;;;;31.60;16.55;;;6.20;19.80;;;;;;4962439;28;20469;-81
2022/03/11 06:33:06;;;;;;;31.27;17.20;;;6.30;20.30;;;;;;4962635;28;20401;-78
2022/03/11 06:35:32;;;;;;;31.13;17.05;;;6.20;19.50;;;;;;4961624;28;20402;-78
2022/03/11 06:37:59;;;;;;;33.20;17.58;;;6.20;19.10;;;;;;4973651;28;20385;-79
2022/03/11 06:40:24;;;;;;;32.17;16.45;;;6.30;19.70;;;;;;4946777;28;20556;-77
2022/03/11 06:42:50;;;;;;;28.80;17.60;;;6.30;19.60;;;;;;4959845;28;20485;-81
2022/03/11 06:45:17;;;;;;;31.65;17.40;;;6.30;20.00;;;;;;4942085;28;20546;-76
2022/03/11 06:47:44;;;;;;;42.67;19.48;;;6.30;19.80;;;;;;4949322;28;20744;-78
2022/03/11 06:50:10;;;;;;;33.55;18.13;;;6.20;18.90;;;;;;4945891;28;20491;-77
2022/03/11 06:52:36;;;;;;;36.17;17.90;;;6.20;19.30;;;;;;4951304;28;20403;-78
2022/03/11 06:55:03;;;;;;;34.95;18.80;;;6.30;19.30;;;;;;4955123;29;20406;-75
2022/03/11 06:57:30;;;;;;;34.85;18.50;;;6.30;19.70;;;;;;4974999;28;20415;-78
2022/03/11 06:59:56;;;;;;;36.10;18.20;;;6.40;19.00;;;;;;4974599;28;20487;-80
2022/03/11 07:02:21;;;;;;;31.95;17.70;;;6.40;18.50;;;;;;4967374;28;20487;-80
2022/03/11 07:04:47;;;;;;;33.58;17.83;;;6.40;19.40;;;;;;4951714;28;20410;-79
2022/03/11 07:07:13;;;;;;;29.48;17.20;;;6.40;19.00;;;;;;4955805;28;20450;-76
2022/03/11 07:09:38;;;;;;;33.85;18.10;;;6.50;18.80;;;;;;4941088;28;20409;-78
2022/03/11 07:12:04;;;;;;;33.80;19.10;;;6.50;18.70;;;;;;4954302;28;20415;-79
2022/03/11 07:14:35;;;;;;;31.15;17.10;;;6.60;18.50;;;;;;4944294;28;20446;-78
2022/03/11 07:17:01;;;;;;;33.80;19.38;;;6.70;17.80;;;;;;4960794;29;20447;-78
2022/03/11 07:19:27;;;;;;;36.22;19.40;;;6.60;18.50;;;;;;4961876;28;20435;-78
2022/03/11 07:21:54;;;;;;;34.85;19.02;;;6.80;18.70;;;;;;4967042;28;20479;-78
2022/03/11 07:24:20;;;;;;;35.22;19.17;;;6.80;18.10;;;;;;4951416;28;20406;-79
2022/03/11 07:26:45;;;;;;;30.83;18.43;;;6.70;16.90;;;;;;4936375;28;20410;-77
2022/03/11 07:29:11;;;;;;;33.00;18.50;;;6.80;17.90;;;;;;4946382;28;20475;-77
2022/03/11 07:31:37;;;;;;;33.92;18.40;;;6.90;17.70;;;;;;4963232;28;20471;-75
2022/03/11 07:34:02;;;;;;;33.75;18.67;;;7.00;17.10;;;;;;4964151;28;20410;-79
2022/03/11 07:36:28;;;;;;;35.20;19.83;;;7.00;16.70;;;;;;4956594;28;20440;-78
2022/03/11 07:38:54;;;;;;;31.13;18.60;;;7.00;17.00;;;;;;4968442;28;20471;-78
2022/03/11 07:41:20;;;;;;;35.53;19.08;;;7.00;16.40;;;;;;4974996;28;20446;-80
2022/03/11 07:43:46;;;;;;;34.42;19.67;;;7.10;17.20;;;;;;5000133;28;20409;-78
2022/03/11 07:46:16;;;;;;;33.65;19.23;;;7.10;16.20;;;;;;4934071;28;20419;-79
2022/03/11 07:48:42;;;;;;;37.67;18.52;;;7.20;16.20;;;;;;4957257;28;20775;-79
2022/03/11 07:51:08;;;;;;;38.28;19.23;;;7.30;16.50;;;;;;4936104;28;20490;-78
2022/03/11 07:53:35;;;;;;;32.38;18.15;;;7.30;16.20;;;;;;4952950;28;20909;-81
2022/03/11 07:56:03;;;;;;;32.85;18.35;;;7.40;17.10;;;;;;4952139;28;20427;-80
2022/03/11 07:58:29;;;;;;;33.03;19.20;;;7.40;15.90;;;;;;4956906;29;20411;-83
2022/03/11 08:00:55;;;;;;;30.60;18.48;;;7.50;16.40;;;;;;4951928;28;20404;-79
2022/03/11 08:03:21;;;;;;;33.78;19.55;;;7.50;15.00;;;;;;4953323;28;20439;-81
2022/03/11 08:05:47;;;;;;;37.53;19.20;;;7.60;15.00;;;;;;4962416;28;20409;-79
2022/03/11 08:08:13;;;;;;;53.08;20.38;;;7.60;16.20;;;;;;4941917;28;20408;-80
2022/03/11 08:10:39;;;;;;;32.53;18.17;;;7.60;14.70;;;;;;4959960;28;20416;-80
2022/03/11 08:13:09;;;;;;;34.03;18.88;;;7.60;14.70;;;;;;4951026;28;20436;-79
2022/03/11 08:15:35;;;;;;;31.65;18.80;;;7.70;15.10;;;;;;4964981;28;20425;-80
2022/03/11 08:18:02;;;;;;;34.58;19.55;;;7.70;14.60;;;;;;4939325;28;20474;-78
2022/03/11 08:20:28;;;;;;;40.95;19.02;;;7.90;14.60;;;;;;4947891;28;20424;-78
2022/03/11 08:22:54;;;;;;;39.63;19.17;;;7.90;15.20;;;;;;4955035;28;20402;-80
2022/03/11 08:25:21;;;;;;;31.50;17.92;;;7.90;14.80;;;;;;4958767;28;20417;-79
2022/03/11 08:27:48;;;;;;;41.05;20.73;;;8.10;14.90;;;;;;4938438;28;20411;-79
2022/03/11 08:30:14;;;;;;;31.58;19.33;;;7.90;13.80;;;;;;4937054;29;20411;-77
2022/03/11 08:32:40;;;;;;;35.33;18.58;;;8.10;13.70;;;;;;4963024;28;20393;-77
2022/03/11 08:35:07;;;;;;;34.90;19.02;;;8.00;14.70;;;;;;4962060;28;20436;-77
2022/03/11 08:37:33;;;;;;;34.90;19.90;;;8.10;14.60;;;;;;4960445;28;20416;-78
2022/03/11 08:39:59;;;;;;;35.25;18.95;;;8.30;14.10;;;;;;4938603;28;20409;-79
2022/03/11 08:42:25;;;;;;;36.23;19.50;;;8.30;14.20;;;;;;4952823;28;20413;-79
2022/03/11 08:44:50;;;;;;;37.23;19.43;;;8.40;13.60;;;;;;4954132;28;20431;-80
2022/03/11 08:47:16;;;;;;;30.35;18.27;;;8.50;14.40;;;;;;4959958;28;20419;-79
2022/03/11 08:49:42;;;;;;;34.80;18.98;;;8.50;13.70;;;;;;4956979;28;20402;-77
2022/03/11 08:52:08;;;;;;;31.85;18.90;;;8.40;13.50;;;;;;4952867;28;20441;-77
2022/03/11 08:54:34;;;;;;;31.80;18.60;;;8.60;13.60;;;;;;4951289;28;20422;-78
2022/03/11 08:56:59;;;;;;;33.38;19.50;;;8.50;12.90;;;;;;4956248;28;20428;-78
2022/03/11 08:59:26;;;;;;;30.35;18.65;;;8.60;13.20;;;;;;4951298;28;20487;-77
2022/03/11 09:01:52;;;;;;;34.42;20.33;;;8.70;13.20;;;;;;4949830;29;20406;-78
2022/03/11 09:04:20;;;;;;;33.73;18.83;;;8.80;13.30;;;;;;4946025;28;20425;-78
2022/03/11 09:06:45;;;;;;;33.65;18.52;;;8.90;13.80;;;;;;4958477;28;20406;-77
2022/03/11 09:09:11;;;;;;;31.47;18.70;;;8.90;12.50;;;;;;4948549;28;20808;-77
2022/03/11 09:11:37;;;;;;;34.97;19.20;;;8.90;13.20;;;;;;4927544;28;20514;-77
2022/03/11 09:14:03;;;;;;;32.83;18.52;;;9.00;13.00;;;;;;4942883;28;20422;-78
2022/03/11 09:16:28;;;;;;;34.40;18.77;;;9.10;12.20;;;;;;4950570;28;20442;-79
2022/03/11 09:18:54;;;;;;;31.38;18.08;;;9.10;12.20;;;;;;4948935;28;20429;-77
2022/03/11 09:21:21;;;;;;;31.20;19.08;;;9.20;12.20;;;;;;4956383;28;20398;-79
2022/03/11 09:23:47;;;;;;;35.30;19.60;;;9.30;12.20;;;;;;4955185;28;20409;-80
2022/03/11 09:26:13;;;;;;;37.05;19.20;;;9.30;12.20;;;;;;4951196;28;20417;-79
2022/03/11 09:28:39;;;;;;;30.73;17.95;;;9.50;11.80;;;;;;4946191;28;20406;-78
2022/03/11 09:31:08;;;;;;;35.95;19.83;;;9.40;11.60;;;;;;4958327;28;20459;-78
2022/03/11 09:33:36;;;;;;;34.92;19.10;;;9.40;11.10;;;;;;4932820;28;20584;-78
2022/03/11 09:36:02;;;;;;;35.58;19.20;;;9.30;11.30;;;;;;4947760;28;20491;-78
2022/03/11 09:38:28;;;;;;;33.25;17.95;;;9.50;11.30;;;;;;4954912;28;20425;-77
2022/03/11 09:40:55;;;;;;;32.60;17.90;;;9.60;12.00;;;;;;4962644;29;20462;-79
2022/03/11 09:43:21;;;;;;;34.97;18.83;;;9.80;11.10;;;;;;4986076;28;20397;-78
2022/03/11 09:45:47;;;;;;;33.15;17.83;;;9.80;10.80;;;;;;4947098;28;20483;-78
2022/03/11 09:48:16;;;;;;;32.22;17.80;;;9.80;11.60;;;;;;4939970;28;20493;-78
2022/03/11 09:50:42;;;;;;;34.45;18.38;;;9.90;12.70;;;;;;4944453;28;20411;-77
2022/03/11 09:53:08;;;;;;;34.40;18.67;;;10.10;11.60;;;;;;4950246;28;20402;-76
2022/03/11 09:55:33;;;;;;;33.35;18.15;;;10.10;11.10;;;;;;4945543;29;20883;-79
2022/03/11 09:57:59;;;;;;;30.00;17.30;;;10.10;11.60;;;;;;4927718;28;20458;-77
2022/03/11 10:00:24;;;;;;;31.40;17.90;;;10.30;11.70;;;;;;4944151;28;20398;-78
2022/03/11 10:02:50;;;;;;;33.60;18.63;;;10.20;12.20;;;;;;4948192;28;20406;-78
2022/03/11 10:05:17;;;;;;;29.13;17.83;;;10.30;11.30;;;;;;4943238;28;20477;-79
2022/03/11 10:07:42;;;;;;;32.10;18.37;;;10.50;11.80;;;;;;4930219;28;20608;-78
2022/03/11 10:10:20;;;;;;;33.45;18.52;;;10.60;11.30;;;;;;4936591;28;20420;-79
2022/03/11 10:12:47;;;;;;;33.25;17.95;;;10.60;10.40;;;;;;4940780;28;20472;-79
2022/03/11 10:15:13;;;;;;;31.35;18.20;;;10.60;11.40;;;;;;4939919;28;20450;-79
2022/03/11 10:17:45;;;;;;;35.97;18.00;;;10.60;10.60;;;;;;4928022;28;20501;-79
2022/03/11 10:20:13;;;;;;;33.70;17.92;;;10.70;10.70;;;;;;4934792;28;20404;-77
2022/03/11 10:22:41;;;;;;;31.15;16.95;;;10.80;10.40;;;;;;4946835;29;20398;-77
2022/03/11 10:25:12;;;;;;;30.47;17.50;;;10.80;10.70;;;;;;4953617;28;20527;-79
2022/03/11 10:27:53;;;;;;;31.00;17.42;;;10.80;10.20;;;;;;4953209;28;20481;-77
2022/03/11 10:30:19;;;;;;;32.42;18.27;;;11.00;10.10;;;;;;4941154;28;20411;-77
2022/03/11 10:32:52;;;;;;;32.20;18.10;;;10.70;9.20;;;;;;4957138;28;20471;-79
2022/03/11 10:35:22;;;;;;;35.35;18.27;;;10.80;9.80;;;;;;4956538;28;20466;-78
2022/03/11 10:38:00;;;;;;;35.13;18.88;;;10.80;9.30;;;;;;4951771;28;20453;-79
2022/03/11 10:40:27;;;;;;;29.35;18.02;;;10.90;9.10;;;;;;4933374;28;20407;-79
2022/03/11 10:43:32;;;;;;;31.77;18.02;;;10.80;9.60;;;;;;4953697;28;20396;-78
2022/03/11 10:46:04;;;;;;;30.55;17.70;;;11.10;10.20;;;;;;4992524;28;20415;-79
2022/03/11 10:48:51;;;;;;;34.53;18.67;;;11.10;10.40;;;;;;4993424;28;20410;-78
2022/03/11 10:51:26;;;;;;;29.52;18.00;;;11.20;8.60;;;;;;4963975;28;20411;-77
2022/03/11 10:53:53;;;;;;;31.45;17.65;;;11.10;8.90;;;;;;4964854;28;20740;-77
2022/03/11 10:56:26;;;;;;;30.30;16.88;;;11.20;9.00;;;;;;4966150;28;20435;-78
2022/03/11 10:58:52;;;;;;;28.95;17.67;;;11.20;8.60;;;;;;4958251;28;20394;-79
2022/03/11 11:01:38;;;;;;;29.25;18.05;;;11.20;8.50;;;;;;4931793;28;20403;-77
2022/03/11 11:04:07;;;;;;;29.20;16.10;;;11.40;8.30;;;;;;4955102;28;20442;-76
2022/03/11 11:06:33;;;;;;;32.67;17.92;;;11.50;9.10;;;;;;4932432;28;20439;-78
2022/03/11 11:08:59;;;;;;;31.65;18.38;;;11.40;8.60;;;;;;4955942;28;20462;-77
2022/03/11 11:11:26;;;;;;;33.70;18.67;;;11.40;8.40;;;;;;4931142;28;20457;-79
2022/03/11 11:13:51;;;;;;;29.50;18.05;;;11.50;7.80;;;;;;4955329;28;20454;-79
2022/03/11 11:16:23;;;;;;;29.23;16.90;;;11.50;8.20;;;;;;4967081;28;20414;-77
2022/03/11 11:18:57;;;;;;;34.50;19.45;;;11.60;8.00;;;;;;4960825;28;20463;-79
2022/03/11 11:21:24;;;;;;;29.35;18.38;;;11.70;8.80;;;;;;4966003;28;20398;-79
2022/03/11 11:23:59;;;;;;;30.73;18.33;;;11.90;7.30;;;;;;4941632;28;20459;-79
2022/03/11 11:26:26;;;;;;;29.15;18.30;;;12.00;8.00;;;;;;4961941;28;20394;-78
2022/03/11 11:28:54;;;;;;;29.83;17.73;;;12.10;7.60;;;;;;4961807;28;20410;-78
2022/03/11 11:31:20;;;;;;;30.70;17.92;;;12.10;8.00;;;;;;4953605;28;20450;-80
2022/03/11 11:33:47;;;;;;;31.90;18.50;;;12.20;7.90;;;;;;4953625;28;20406;-79
2022/03/11 11:36:13;;;;;;;31.23;17.40;;;12.20;7.30;;;;;;4963301;28;20582;-80
2022/03/11 11:38:43;;;;;;;31.70;17.88;;;12.30;6.90;;;;;;4961841;28;20411;-78
2022/03/11 11:41:18;;;;;;;31.77;18.27;;;12.30;7.00;;;;;;4949989;28;20404;-79
2022/03/11 11:43:59;;;;;;;30.27;18.13;;;12.40;7.80;;;;;;4949638;28;20474;-78
2022/03/11 11:46:25;;;;;;;29.80;17.95;;;12.50;7.50;;;;;;4945782;28;20475;-79
2022/03/11 11:48:51;;;;;;;28.75;17.77;;;12.60;7.00;;;;;;4936830;28;20408;-79
2022/03/11 11:51:20;;;;;;;33.53;17.67;;;12.60;6.80;;;;;;4956612;28;20504;-77
2022/03/11 11:53:45;;;;;;;30.25;18.02;;;12.80;7.30;;;;;;4974351;28;20887;-79
2022/03/11 11:56:28;;;;;;;32.90;16.80;;;12.60;6.50;;;;;;4945800;28;20420;-79
2022/03/11 11:58:56;;;;;;;30.35;16.50;;;12.70;7.30;;;;;;4946903;28;20400;-80
2022/03/11 12:01:44;;;;;;;28.25;17.27;;;12.90;7.50;;;;;;4956736;28;20493;-78
2022/03/11 12:04:25;;;;;;;30.55;17.13;;;12.90;7.60;;;;;;4956305;28;20415;-79
2022/03/11 12:07:14;;;;;;;31.77;17.80;;;12.90;6.80;;;;;;4958637;28;20426;-78
2022/03/11 12:09:40;;;;;;;31.95;17.38;;;12.70;7.90;;;;;;4963612;28;20430;-79
2022/03/11 12:12:32;;;;;;;35.47;17.77;;;12.90;8.10;;;;;;4936724;28;20471;-79
2022/03/11 12:15:01;;;;;;;31.02;17.42;;;12.90;7.40;;;;;;4955216;28;20479;-78
2022/03/11 12:17:39;;;;;;;33.30;18.25;;;13.00;8.00;;;;;;4961162;28;20430;-79
2022/03/11 12:20:23;;;;;;;29.60;17.48;;;13.10;7.90;;;;;;4940559;28;20409;-80
2022/03/11 12:22:54;;;;;;;31.70;17.35;;;13.00;7.70;;;;;;4951277;28;20400;-80
2022/03/11 12:25:22;;;;;;;32.75;17.60;;;13.10;7.80;;;;;;4923013;28;20404;-78
2022/03/11 12:28:04;;;;;;;29.17;17.63;;;13.20;7.70;;;;;;4947016;28;20425;-79
2022/03/11 12:30:40;;;;;;;34.00;18.47;;;13.30;7.20;;;;;;4952101;28;20418;-79
2022/03/11 12:33:15;;;;;;;36.83;17.90;;;13.30;7.00;;;;;;4962882;28;20410;-80
2022/03/11 12:35:42;;;;;;;27.95;17.13;;;13.40;7.20;;;;;;4957074;28;20428;-82
2022/03/11 12:38:17;;;;;;;31.47;17.87;;;13.40;7.60;;;;;;4959550;28;20412;-82